Terminal Aerodrome Forecast
Issued by NWS

Home | Current Version | Previous Version | Text Only | Print | Product List | Glossary On
Versions: 1 2 3 4 5 6 7 8 9 10 11 12 13 14 15 16 17
000
FTUS42 KFFC 040520
TAFFTY
TAF
KFTY 040520Z 0406/0506 00000KT P6SM BKN250
     FM041400 35004KT P6SM SCT250
     FM041700 31005KT P6SM SCT050
     FM050200 00000KT P6SM FEW080 SCT250=

USA.gov is the U.S. government's official web portal to all federal, state and local government web resources and services.